createdAt,value
2019-03-19T09:39:17.868Z,3498.75
2019-03-19T09:40:17.848Z,3808.12
2019-03-19T09:41:17.831Z,1895.62
2019-03-19T09:42:17.823Z,3324.38
2019-03-19T09:43:17.823Z,3375.00
2019-03-19T09:44:17.798Z,3088.12
2019-03-19T09:45:17.784Z,2970.00
2019-03-19T09:46:18.643Z,3380.62
2019-03-19T09:47:17.762Z,3211.88
2019-03-19T09:48:17.768Z,3442.50
2019-03-19T09:49:17.742Z,3414.38
2019-03-19T09:50:17.753Z,3459.38
2019-03-19T09:51:17.717Z,2250.00
2019-03-19T09:52:17.707Z,1091.25
2019-03-19T09:53:18.757Z,1215.00
2019-03-19T09:54:17.684Z,1046.25
2019-03-19T09:55:17.670Z,866.25
2019-03-19T09:56:17.663Z,675.00
2019-03-19T09:57:17.650Z,624.38
2019-03-19T09:58:17.636Z,601.88
2019-03-19T09:59:26.840Z,669.38
2019-03-19T10:00:18.617Z,618.75
2019-03-19T10:01:17.603Z,601.88
2019-03-19T10:02:17.592Z,3031.88
2019-03-19T10:03:17.581Z,3487.50
2019-03-19T10:04:17.586Z,3549.38
2019-03-19T10:05:17.558Z,3622.50
2019-03-19T10:06:17.547Z,731.25
2019-03-19T10:07:17.536Z,680.62
2019-03-19T10:08:17.523Z,1085.62
2019-03-19T10:09:17.575Z,3751.88
2019-03-19T10:10:17.576Z,3667.50
2019-03-19T10:11:17.488Z,4016.25
2019-03-19T10:12:17.477Z,3245.62
2019-03-19T10:13:17.468Z,2345.62
2019-03-19T10:14:17.475Z,3892.50
2019-03-19T10:15:17.450Z,2463.75
2019-03-19T10:16:17.434Z,4044.38
2019-03-19T10:17:17.421Z,3391.88
2019-03-19T10:18:17.409Z,1203.75
2019-03-19T10:19:17.417Z,2373.75
2019-03-19T10:20:18.078Z,4179.38
2019-03-19T10:21:17.376Z,3262.50
2019-03-19T10:22:17.365Z,2233.12
2019-03-19T10:23:17.353Z,2176.88
2019-03-19T10:24:17.358Z,2401.88
2019-03-19T10:25:17.334Z,2458.12
2019-03-19T10:26:17.316Z,1428.75
2019-03-19T10:27:19.567Z,1130.62
2019-03-19T10:28:17.318Z,1074.38
2019-03-19T10:29:17.310Z,1299.38
2019-03-19T10:30:17.274Z,1001.25
2019-03-19T10:31:17.266Z,3476.25
2019-03-19T10:32:17.250Z,1248.75
2019-03-19T10:33:17.238Z,860.62
2019-03-19T10:34:17.228Z,708.75
2019-03-19T10:35:17.235Z,641.25
2019-03-19T10:36:17.206Z,618.75
2019-03-19T10:37:17.194Z,590.62
2019-03-19T10:38:17.181Z,585.00
2019-03-19T10:39:17.174Z,562.50
2019-03-19T10:40:17.177Z,573.75
2019-03-19T10:41:17.146Z,585.00
2019-03-19T10:42:17.136Z,607.50
2019-03-19T10:43:17.126Z,680.62
2019-03-19T10:44:17.113Z,804.38
2019-03-19T10:45:17.123Z,3020.62
2019-03-19T10:46:17.092Z,2835.00
2019-03-19T10:47:17.077Z,4089.38
2019-03-19T10:48:17.065Z,4196.25
2019-03-19T10:49:17.054Z,3926.25
2019-03-19T10:50:17.070Z,3926.25
2019-03-19T10:51:17.034Z,4033.12
2019-03-19T10:52:17.027Z,3999.38
2019-03-19T10:53:17.007Z,1721.25
2019-03-19T10:54:16.999Z,4066.88
2019-03-19T10:55:17.005Z,4072.50
2019-03-19T10:56:16.975Z,4044.38
2019-03-19T10:57:16.962Z,4111.88
2019-03-19T10:58:16.951Z,3988.12
2019-03-19T10:59:16.940Z,3858.75
2019-03-19T11:00:16.953Z,3971.25
2019-03-19T11:01:16.920Z,3898.12
2019-03-19T11:02:16.906Z,3802.50
2019-03-19T11:03:16.898Z,3864.38
2019-03-19T16:06:46.819Z,286.88
2019-03-19T16:07:46.807Z,298.12
2019-03-19T16:08:46.778Z,298.12
2019-03-19T16:09:46.766Z,275.62
2019-03-19T16:10:46.752Z,258.75
2019-03-19T16:11:46.744Z,258.75
2019-03-19T16:12:46.757Z,264.38
2019-03-19T16:13:46.718Z,258.75
2019-03-19T16:14:46.752Z,258.75
2019-03-19T16:15:46.695Z,253.12
2019-03-19T16:16:46.687Z,253.12
2019-03-19T16:17:46.697Z,253.12
2019-03-19T16:18:46.677Z,253.12
2019-03-19T16:19:46.648Z,253.12
2019-03-19T16:20:46.639Z,258.75
2019-03-19T16:21:47.595Z,264.38
2019-03-19T16:22:46.619Z,270.00
2019-03-19T16:23:46.631Z,270.00
2019-03-19T16:24:46.591Z,258.75
2019-03-19T16:25:46.579Z,253.12
2019-03-19T16:26:46.570Z,253.12
2019-03-19T16:27:46.559Z,241.88
2019-03-19T16:28:46.563Z,225.00
2019-03-19T16:29:46.535Z,230.62
2019-03-19T16:30:46.528Z,225.00
2019-03-19T16:31:50.883Z,230.62
2019-03-19T16:32:46.501Z,230.62
2019-03-19T16:33:46.508Z,236.25
2019-03-19T16:34:46.476Z,236.25
2019-03-19T16:35:46.465Z,236.25
2019-03-19T16:36:46.454Z,236.25
2019-03-19T16:37:46.441Z,225.00
2019-03-19T16:38:46.453Z,208.12
2019-03-19T16:39:46.428Z,196.88
2019-03-19T16:40:46.412Z,180.00
2019-03-19T16:41:46.395Z,168.75
2019-03-19T16:42:46.399Z,163.12
2019-03-19T16:43:46.373Z,157.50
2019-03-19T16:44:46.378Z,151.88
2019-03-19T16:45:46.348Z,151.88
2019-03-19T16:46:46.343Z,146.25
2019-03-19T16:47:46.327Z,140.62
2019-03-19T16:48:46.344Z,146.25
2019-03-19T16:49:46.335Z,151.88
2019-03-19T16:50:46.296Z,151.88
2019-03-19T16:51:46.286Z,151.88
2019-03-19T16:52:46.269Z,146.25
2019-03-19T16:53:46.258Z,146.25
2019-03-19T16:54:46.265Z,146.25
2019-03-19T16:55:46.237Z,135.00
2019-03-19T16:56:46.225Z,129.38
2019-03-19T16:57:46.208Z,129.38
2019-03-19T16:58:46.200Z,129.38
2019-03-19T16:59:46.211Z,129.38
2019-03-19T17:00:46.180Z,123.75
2019-03-19T17:01:46.168Z,118.12
2019-03-19T17:02:46.156Z,112.50
2019-03-19T17:03:46.139Z,106.88
2019-03-19T17:04:46.132Z,101.25
2019-03-19T17:05:46.142Z,84.38
2019-03-19T17:06:46.105Z,67.50
2019-03-19T17:07:46.098Z,90.00
2019-03-19T17:08:46.082Z,84.38
2019-03-19T17:09:46.090Z,84.38
2019-03-19T17:10:46.079Z,90.00
2019-03-19T17:11:46.048Z,84.38
2019-03-19T17:12:46.036Z,78.75
2019-03-19T17:13:46.022Z,73.12
2019-03-19T17:14:46.010Z,67.50
2019-03-19T17:15:46.020Z,67.50
2019-03-19T17:16:45.987Z,61.88
2019-03-19T17:17:45.977Z,56.25
2019-03-19T17:18:45.967Z,50.62
2019-03-19T17:19:45.953Z,50.62
2019-03-19T17:20:45.965Z,45.00
2019-03-19T17:21:45.933Z,39.38
2019-03-19T17:22:45.918Z,33.75
2019-03-19T17:23:45.909Z,33.75
2019-03-19T17:24:45.895Z,33.75
2019-03-19T17:25:45.884Z,33.75
2019-03-19T17:26:45.894Z,28.12
2019-03-19T17:27:45.859Z,28.12
2019-03-19T17:28:45.849Z,28.12
2019-03-19T17:29:45.837Z,22.50
2019-03-19T17:30:45.827Z,22.50
2019-03-19T17:31:45.834Z,22.50
2019-03-19T17:32:45.802Z,22.50
2019-03-19T17:33:45.792Z,16.88
2019-03-19T17:34:45.817Z,16.88
2019-03-19T17:35:45.769Z,16.88
2019-03-19T17:36:45.779Z,11.25
2019-03-19T17:37:45.748Z,11.25
2019-03-19T17:38:45.733Z,11.25
2019-03-19T17:39:45.725Z,11.25
2019-03-19T17:40:45.710Z,11.25
2019-03-19T17:41:45.718Z,5.62
2019-03-19T17:42:45.689Z,5.62
2019-03-19T17:43:45.678Z,5.62
2019-03-19T17:44:45.665Z,5.62
2019-03-19T17:45:45.653Z,5.62
2019-03-19T17:46:45.661Z,5.62
2019-03-19T17:47:45.631Z,5.62
2019-03-19T17:48:45.618Z,0.00
2019-03-19T17:49:45.605Z,0.00
2019-03-19T17:50:45.595Z,0.00
2019-03-19T17:51:45.584Z,0.00
2019-03-19T17:52:45.644Z,0.00
2019-03-19T17:53:45.558Z,0.00
2019-03-19T17:54:45.548Z,0.00
2019-03-19T17:55:45.535Z,0.00
2019-03-19T17:56:45.526Z,0.00
2019-03-19T17:57:45.528Z,0.00
2019-03-19T17:58:45.499Z,0.00
2019-03-19T17:59:45.487Z,0.00
2019-03-19T18:00:45.477Z,0.00
2019-03-19T18:01:45.463Z,0.00
2019-03-19T18:02:45.470Z,0.00
2019-03-19T18:03:45.449Z,0.00
2019-03-19T18:04:45.429Z,0.00
2019-03-19T18:05:45.416Z,0.00
2019-03-19T18:06:45.405Z,0.00
2019-03-19T18:07:45.426Z,0.00
2019-03-19T18:08:45.381Z,0.00
2019-03-19T18:09:45.369Z,0.00
2019-03-19T18:10:45.405Z,0.00
